SBSL/SLZ METAR and TAF weather

Enter ICAO airport designator
Station Type Date Time Source
SBSL METAR 2019/06/27 10:00 UTC NOAA

SBSL 271000Z 09004KT CAVOK 26/25 Q1014


Station Type Date Time Source
SBSL Decoded METAR 2019/06/27 10:00 UTC NOAA

Sao Luiz Aeroporto , Brazil (SBSL) 02-36S 044-14W 53M
Jun 27, 2019 - 06:00 AM EDT / 2019.06.27 1000 UTC
Wind: from the E (090 degrees) at 5 MPH (4 KT):0
Visibility: greater than 7 mile(s):0
Temperature: 78 F (26 C)
Dew Point: 77 F (25 C)
Relative Humidity: 94%
Pressure (altimeter): 29.94 in. Hg (1014 hPa)
ob: SBSL 271000Z 09004KT CAVOK 26/25 Q1014
cycle: 10

Station Type Date Time Source
SBSL TAF 2019/06/27 12:33 UTC NOAA

TAF SBSL 270930Z 2712/2812 07005KT CAVOK TX31/2718Z TN25/2809Z
BECMG 2712/2714 09007KT SCT020
BECMG 2715/2717 06010KT BKN020
BECMG 2720/2723 07005K T FEW020
RMK PHC

Example: see airport list